createdAt,value
2022-08-17T00:00:44.030Z,25.51
2022-08-17T00:01:53.253Z,25.09
2022-08-17T00:03:06.375Z,24.81
2022-08-17T00:04:11.674Z,24.85
2022-08-17T00:05:15.708Z,25.21
2022-08-17T00:06:29.391Z,25.60
2022-08-17T00:07:31.105Z,26.01
2022-08-17T00:08:36.906Z,26.28
2022-08-17T00:09:38.659Z,26.53
2022-08-17T00:10:41.920Z,26.71
2022-08-17T00:12:35.510Z,26.84
2022-08-17T00:13:12.510Z,26.62
2022-08-17T00:14:17.745Z,26.23
2022-08-17T00:15:21.598Z,25.81
2022-08-17T00:16:55.893Z,25.42
2022-08-17T00:17:53.206Z,24.94
2022-08-17T00:19:07.527Z,24.73
2022-08-17T00:20:12.269Z,24.92
2022-08-17T00:21:17.080Z,25.31
2022-08-17T00:22:35.122Z,25.74
2022-08-17T00:23:39.369Z,26.10
2022-08-17T00:24:48.660Z,26.41
2022-08-17T00:25:50.694Z,26.62
2022-08-17T00:26:52.405Z,26.80
2022-08-17T00:27:54.133Z,26.93
2022-08-17T00:28:56.938Z,26.84
2022-08-17T00:29:58.627Z,26.53
2022-08-17T00:31:01.116Z,26.14
2022-08-17T00:33:11.959Z,25.74
2022-08-17T00:33:30.686Z,25.27
2022-08-17T00:34:32.720Z,24.91
2022-08-17T00:35:35.433Z,24.72
2022-08-17T00:36:37.797Z,24.87
2022-08-17T00:37:40.309Z,25.23
2022-08-17T00:38:42.350Z,25.62
2022-08-17T00:39:44.316Z,25.96
2022-08-17T00:40:50.028Z,26.24
2022-08-17T00:41:53.580Z,26.46
2022-08-17T00:42:55.499Z,26.63
2022-08-17T00:44:03.232Z,26.76
2022-08-17T00:45:11.164Z,26.70
2022-08-17T00:46:28.174Z,26.37
2022-08-17T00:47:30.173Z,25.90
2022-08-17T00:48:32.468Z,25.53
2022-08-17T00:49:34.214Z,25.21
2022-08-17T00:50:37.335Z,24.91
2022-08-17T00:51:54.993Z,24.64
2022-08-17T00:52:58.788Z,24.61
2022-08-17T00:54:19.066Z,24.95
2022-08-17T00:55:22.296Z,25.47
2022-08-17T00:56:31.605Z,25.83
2022-08-17T00:57:40.217Z,26.15
2022-08-17T00:58:42.109Z,26.39
2022-08-17T01:00:01.986Z,26.56
2022-08-17T01:01:08.613Z,26.54
2022-08-17T01:02:15.237Z,26.24
2022-08-17T01:03:27.657Z,25.82
2022-08-17T01:04:32.416Z,25.40
2022-08-17T01:05:38.736Z,25.07
2022-08-17T01:06:49.445Z,24.76
2022-08-17T01:07:51.738Z,24.51
2022-08-17T01:08:57.586Z,24.34
2022-08-17T01:10:06.071Z,24.48
2022-08-17T01:11:08.362Z,24.91
2022-08-17T01:12:12.144Z,25.33
2022-08-17T01:13:14.277Z,25.71
2022-08-17T01:14:16.056Z,26.01
2022-08-17T01:15:17.884Z,26.25
2022-08-17T01:16:26.725Z,26.43
2022-08-17T01:17:28.546Z,26.37
2022-08-17T01:18:32.277Z,26.06
2022-08-17T01:19:39.254Z,25.68
2022-08-17T01:20:48.970Z,25.29
2022-08-17T01:22:02.726Z,24.90
2022-08-17T01:23:04.814Z,24.55
2022-08-17T01:24:07.393Z,24.29
2022-08-17T01:25:12.698Z,24.16
2022-08-17T01:26:14.703Z,24.39
2022-08-17T01:27:18.454Z,24.80
2022-08-17T01:28:52.568Z,25.25
2022-08-17T01:29:51.119Z,25.71
2022-08-17T01:30:58.066Z,26.00
2022-08-17T01:32:06.035Z,26.17
2022-08-17T01:33:11.377Z,26.04
2022-08-17T01:34:16.554Z,25.70
2022-08-17T01:35:18.243Z,25.33
2022-08-17T01:36:20.236Z,25.01
2022-08-17T01:37:31.177Z,24.70
2022-08-17T01:38:37.208Z,24.41
2022-08-17T01:39:45.728Z,24.17
2022-08-17T01:40:57.564Z,23.98
2022-08-17T01:42:09.403Z,24.14
2022-08-17T01:43:25.034Z,24.60
2022-08-17T01:44:27.812Z,25.12
2022-08-17T01:45:33.805Z,25.48
2022-08-17T01:46:38.559Z,25.78
2022-08-17T01:47:41.749Z,26.02
2022-08-17T01:48:47.261Z,26.16
2022-08-17T01:49:49.265Z,26.00
2022-08-17T01:50:51.973Z,25.67
2022-08-17T01:51:54.742Z,25.28
2022-08-17T01:53:05.977Z,24.91
2022-08-17T01:54:12.828Z,24.56
2022-08-17T01:55:25.880Z,24.25
2022-08-17T01:56:32.575Z,23.99
2022-08-17T01:57:34.371Z,23.94
2022-08-17T01:58:37.858Z,24.22
2022-08-17T01:59:39.722Z,24.67
2022-08-17T02:00:59.465Z,25.11
2022-08-17T02:02:04.845Z,25.58
2022-08-17T02:03:08.246Z,25.86
2022-08-17T02:04:11.325Z,26.09
2022-08-17T02:05:13.187Z,26.19
2022-08-17T02:06:27.284Z,25.99
2022-08-17T02:07:29.980Z,25.56
2022-08-17T02:08:39.165Z,25.19
2022-08-17T02:09:57.362Z,24.71
2022-08-17T02:11:04.302Z,24.42
2022-08-17T02:12:38.865Z,24.13
2022-08-17T02:13:35.834Z,24.07
2022-08-17T02:14:37.550Z,24.39
2022-08-17T02:15:41.483Z,24.83
2022-08-17T02:16:43.385Z,25.28
2022-08-17T02:17:45.304Z,25.62
2022-08-17T02:18:46.997Z,25.91
2022-08-17T02:19:48.766Z,26.14
2022-08-17T02:20:50.430Z,26.20
2022-08-17T02:21:54.069Z,26.00
2022-08-17T02:22:55.842Z,25.64
2022-08-17T02:23:57.622Z,25.30
2022-08-17T02:25:02.573Z,24.97
2022-08-17T02:26:05.753Z,24.65
2022-08-17T02:27:07.611Z,24.39
2022-08-17T02:28:10.280Z,24.17
2022-08-17T02:29:12.079Z,24.11
2022-08-17T02:31:01.816Z,24.37
2022-08-17T02:31:37.918Z,24.94
2022-08-17T02:32:40.757Z,25.34
2022-08-17T02:33:43.791Z,25.68
2022-08-17T02:34:46.044Z,25.95
2022-08-17T02:35:48.082Z,26.15
2022-08-17T02:36:49.734Z,26.15
2022-08-17T02:37:55.462Z,25.90
2022-08-17T02:38:58.559Z,25.52
2022-08-17T02:40:00.502Z,25.15
2022-08-17T02:41:03.146Z,24.82
2022-08-17T02:42:05.421Z,24.53
2022-08-17T02:43:08.811Z,24.27
2022-08-17T02:44:11.351Z,24.04
2022-08-17T02:45:19.582Z,23.93
2022-08-17T02:46:21.258Z,24.19
2022-08-17T02:47:23.512Z,24.61
2022-08-17T02:48:30.824Z,25.06
2022-08-17T02:49:33.597Z,25.47
2022-08-17T02:50:35.316Z,25.78
2022-08-17T02:51:37.292Z,26.03
2022-08-17T02:52:43.666Z,26.18
2022-08-17T02:53:46.743Z,26.03
2022-08-17T02:54:48.431Z,25.71
2022-08-17T02:55:50.126Z,25.36
2022-08-17T02:56:53.479Z,25.01
2022-08-17T02:57:55.982Z,24.69
2022-08-17T02:58:58.630Z,24.44
2022-08-17T03:00:00.273Z,24.21
2022-08-17T03:01:03.261Z,24.03
2022-08-17T03:02:08.328Z,24.10
2022-08-17T03:03:11.081Z,24.47
2022-08-17T03:04:12.838Z,24.90
2022-08-17T03:05:18.252Z,25.30
2022-08-17T03:06:19.894Z,25.63
2022-08-17T03:07:21.609Z,25.86
2022-08-17T03:08:23.834Z,26.02
2022-08-17T03:09:25.570Z,25.93
2022-08-17T03:10:28.244Z,25.61
2022-08-17T03:11:29.942Z,25.22
2022-08-17T03:12:41.650Z,24.82
2022-08-17T03:13:43.281Z,24.42
2022-08-17T03:14:44.943Z,24.12
2022-08-17T03:15:47.166Z,23.86
2022-08-17T03:16:48.831Z,23.68
2022-08-17T03:17:52.063Z,23.82
2022-08-17T03:18:55.026Z,24.21
2022-08-17T03:19:56.719Z,24.63
2022-08-17T03:21:04.131Z,25.01
2022-08-17T03:22:35.405Z,25.34
2022-08-17T03:23:31.103Z,25.64
2022-08-17T03:24:32.896Z,25.81
2022-08-17T03:25:38.604Z,25.79
2022-08-17T03:26:40.382Z,25.47
2022-08-17T03:27:42.168Z,25.07
2022-08-17T03:28:49.825Z,24.63
2022-08-17T03:29:51.471Z,24.26
2022-08-17T03:30:53.352Z,23.94
2022-08-17T03:31:55.032Z,23.65
2022-08-17T03:33:00.810Z,23.45
2022-08-17T03:34:02.480Z,23.56
2022-08-17T03:35:04.438Z,23.92
2022-08-17T03:36:07.002Z,24.32
2022-08-17T03:37:09.461Z,24.68
2022-08-17T03:38:15.364Z,25.00
2022-08-17T03:39:17.897Z,25.26
2022-08-17T03:40:34.449Z,25.46
2022-08-17T03:41:42.054Z,25.68
2022-08-17T03:42:44.274Z,25.71
2022-08-17T03:43:46.044Z,25.47
2022-08-17T03:44:57.142Z,25.10
2022-08-17T03:46:28.810Z,24.63
2022-08-17T03:47:56.091Z,24.09
2022-08-17T03:49:16.684Z,23.72
2022-08-17T03:50:19.046Z,23.62
2022-08-17T03:51:42.692Z,23.91
2022-08-17T03:53:02.903Z,24.45
2022-08-17T03:54:23.656Z,24.94
2022-08-17T03:55:43.613Z,25.32
2022-08-17T03:56:55.115Z,25.61
2022-08-17T03:57:56.800Z,25.82
2022-08-17T03:58:58.493Z,25.97
2022-08-17T04:00:00.413Z,26.05
2022-08-17T04:01:02.323Z,25.89
2022-08-17T04:02:11.075Z,25.55
2022-08-17T04:03:13.847Z,25.11
2022-08-17T04:04:16.833Z,24.73
2022-08-17T04:05:18.540Z,24.41
2022-08-17T04:06:20.808Z,24.15
2022-08-17T04:07:26.108Z,24.16
2022-08-17T04:08:29.103Z,24.49
2022-08-17T04:09:31.125Z,24.91
2022-08-17T04:10:33.975Z,25.29
2022-08-17T04:11:43.274Z,25.63
2022-08-17T04:12:52.999Z,25.88
2022-08-17T04:13:56.101Z,26.11
2022-08-17T04:14:58.298Z,26.28
2022-08-17T04:16:00.026Z,26.41
2022-08-17T04:17:02.538Z,26.47
2022-08-17T04:18:04.401Z,26.28
2022-08-17T04:19:06.318Z,25.92
2022-08-17T04:20:08.573Z,25.52
2022-08-17T04:21:10.636Z,25.15
2022-08-17T04:22:12.378Z,24.81
2022-08-17T04:23:36.569Z,24.50
2022-08-17T04:24:38.311Z,24.66
2022-08-17T04:25:44.462Z,25.03
2022-08-17T04:26:53.817Z,25.45
2022-08-17T04:27:57.695Z,25.83
2022-08-17T04:28:59.893Z,26.12
2022-08-17T04:30:02.195Z,26.33
2022-08-17T04:31:04.738Z,26.51
2022-08-17T04:32:06.797Z,26.66
2022-08-17T04:33:18.345Z,26.79
2022-08-17T04:34:20.261Z,26.80
2022-08-17T04:35:25.957Z,26.54
2022-08-17T04:36:28.357Z,26.14
2022-08-17T04:37:30.220Z,25.74
2022-08-17T04:38:35.792Z,25.38
2022-08-17T04:39:37.519Z,25.05
2022-08-17T04:40:58.028Z,24.91
2022-08-17T04:42:17.030Z,25.21
2022-08-17T04:43:22.198Z,25.67
2022-08-17T04:44:30.406Z,26.03
2022-08-17T04:45:55.478Z,26.36
2022-08-17T04:46:58.518Z,26.60
2022-08-17T04:48:01.227Z,26.75
2022-08-17T04:49:06.739Z,26.87
2022-08-17T04:50:09.280Z,26.95
2022-08-17T04:51:14.947Z,27.02
2022-08-17T04:52:29.775Z,27.09
2022-08-17T04:53:44.476Z,27.16
2022-08-17T04:54:46.174Z,27.05
2022-08-17T04:55:48.451Z,26.72
2022-08-17T04:56:50.166Z,26.30
2022-08-17T04:57:51.855Z,25.87
2022-08-17T04:58:56.784Z,25.48
2022-08-17T04:59:58.480Z,25.16
2022-08-17T05:01:00.486Z,25.15
2022-08-17T05:02:02.326Z,25.42
2022-08-17T05:03:04.956Z,25.76
2022-08-17T05:04:32.121Z,26.06
2022-08-17T05:05:36.455Z,26.41
2022-08-17T05:06:38.233Z,26.61
2022-08-17T05:07:39.961Z,26.76
2022-08-17T05:08:42.122Z,26.88
2022-08-17T05:09:43.981Z,26.98
2022-08-17T05:10:46.965Z,27.06
2022-08-17T05:11:48.844Z,27.15
2022-08-17T05:13:15.804Z,27.24
2022-08-17T05:14:17.510Z,27.35
2022-08-17T05:15:19.249Z,27.42
2022-08-17T05:16:23.583Z,27.39
2022-08-17T05:17:25.295Z,27.12
2022-08-17T05:18:29.570Z,26.74
2022-08-17T05:19:31.336Z,26.32
2022-08-17T05:20:34.970Z,25.96
2022-08-17T05:21:36.688Z,25.64
2022-08-17T05:22:51.275Z,25.54
2022-08-17T05:23:56.395Z,25.84
2022-08-17T05:24:58.657Z,26.23
2022-08-17T05:26:04.398Z,26.57
2022-08-17T05:27:09.640Z,26.88
2022-08-17T05:28:19.059Z,27.12
2022-08-17T05:29:33.790Z,27.33
2022-08-17T05:30:40.421Z,27.49
2022-08-17T05:31:42.151Z,27.62
2022-08-17T05:33:00.308Z,27.73
2022-08-17T05:34:02.062Z,27.84
2022-08-17T05:35:05.359Z,27.73
2022-08-17T05:36:09.616Z,27.40
2022-08-17T05:37:31.301Z,26.87
2022-08-17T05:38:33.194Z,26.51
2022-08-17T05:39:34.898Z,26.19
2022-08-17T05:40:37.151Z,25.93
2022-08-17T05:41:39.220Z,25.90
2022-08-17T05:42:41.505Z,26.17
2022-08-17T05:43:43.351Z,26.55
2022-08-17T05:44:45.176Z,26.90
2022-08-17T05:46:13.297Z,27.19
2022-08-17T05:47:15.249Z,27.50
2022-08-17T05:48:17.041Z,27.68
2022-08-17T05:49:28.349Z,27.82
2022-08-17T05:50:45.755Z,27.91
2022-08-17T05:52:08.498Z,27.68
2022-08-17T05:53:32.789Z,27.20
2022-08-17T05:54:43.375Z,26.67
2022-08-17T05:56:29.465Z,26.32
2022-08-17T05:57:56.061Z,25.89
2022-08-17T05:59:18.649Z,26.02
2022-08-17T06:00:30.586Z,26.52
2022-08-17T06:01:48.591Z,26.96
2022-08-17T06:02:56.000Z,27.34
2022-08-17T06:04:22.573Z,27.59
2022-08-17T06:05:55.393Z,27.86
2022-08-17T06:07:21.704Z,28.07
2022-08-17T06:08:54.021Z,27.95
2022-08-17T06:10:14.707Z,27.45
2022-08-17T06:11:32.838Z,26.99
2022-08-17T06:12:56.195Z,26.60
2022-08-17T06:14:30.598Z,26.27
2022-08-17T06:15:52.618Z,26.15
2022-08-17T06:17:02.357Z,26.57
2022-08-17T06:18:08.178Z,27.04
2022-08-17T06:19:48.656Z,27.42
2022-08-17T06:20:53.484Z,27.91
2022-08-17T06:21:55.953Z,28.15
2022-08-17T06:23:08.701Z,28.33
2022-08-17T06:24:35.659Z,28.48
2022-08-17T06:25:49.680Z,28.25
2022-08-17T06:26:54.763Z,27.86
2022-08-17T06:28:08.657Z,27.54
2022-08-17T06:29:41.211Z,27.20
2022-08-17T06:31:00.743Z,26.89
2022-08-17T06:32:05.000Z,26.73
2022-08-17T06:33:17.370Z,26.93
2022-08-17T06:34:20.815Z,27.43
2022-08-17T06:35:34.143Z,27.87
2022-08-17T06:36:53.961Z,28.31
2022-08-17T06:38:37.119Z,28.72
2022-08-17T06:39:37.691Z,28.99
2022-08-17T06:41:13.762Z,28.84
2022-08-17T06:43:00.819Z,28.37
2022-08-17T06:44:43.179Z,27.90
2022-08-17T06:46:11.462Z,27.52
2022-08-17T06:47:28.162Z,27.23
2022-08-17T06:49:09.041Z,27.04
2022-08-17T06:50:35.917Z,26.83
2022-08-17T06:51:40.603Z,26.68
2022-08-17T06:52:57.670Z,26.70
2022-08-17T06:54:14.347Z,27.15
2022-08-17T06:55:26.383Z,27.75
2022-08-17T06:56:53.296Z,28.27
2022-08-17T06:58:05.330Z,28.75
2022-08-17T06:59:23.661Z,28.95
2022-08-17T07:00:37.058Z,28.78
2022-08-17T07:01:42.125Z,28.44
2022-08-17T07:02:58.794Z,28.12
2022-08-17T07:04:12.106Z,27.80
2022-08-17T07:05:18.322Z,27.54
2022-08-17T07:06:32.433Z,27.35
2022-08-17T07:08:04.861Z,27.15
2022-08-17T07:09:18.689Z,26.99
2022-08-17T07:10:23.645Z,26.86
2022-08-17T07:11:30.969Z,26.77
2022-08-17T07:12:39.405Z,26.68
2022-08-17T07:14:05.878Z,26.59
2022-08-17T07:15:25.939Z,26.50
2022-08-17T07:16:48.952Z,26.46
2022-08-17T07:17:50.883Z,26.86
2022-08-17T07:18:56.432Z,27.37
2022-08-17T07:20:08.217Z,27.91
2022-08-17T07:21:26.912Z,28.42
2022-08-17T07:23:09.049Z,28.79
2022-08-17T07:24:43.174Z,28.64
2022-08-17T07:25:44.887Z,28.25
2022-08-17T07:26:49.516Z,28.01
2022-08-17T07:27:55.882Z,27.79
2022-08-17T07:29:00.706Z,27.61
2022-08-17T07:30:10.862Z,27.47
2022-08-17T07:31:14.292Z,27.34
2022-08-17T07:32:20.730Z,27.26
2022-08-17T07:33:34.219Z,27.18
2022-08-17T07:35:08.507Z,27.10
2022-08-17T07:36:29.594Z,26.98
2022-08-17T07:37:33.325Z,26.91
2022-08-17T07:38:35.637Z,26.93
2022-08-17T07:39:37.446Z,27.25
2022-08-17T07:41:05.368Z,27.90
2022-08-17T07:42:10.464Z,28.41
2022-08-17T07:43:23.074Z,28.81
2022-08-17T07:44:25.418Z,28.97
2022-08-17T07:45:45.730Z,28.84
2022-08-17T07:47:11.690Z,28.54
2022-08-17T07:48:21.382Z,28.24
2022-08-17T07:49:22.980Z,28.04
2022-08-17T07:50:30.050Z,27.91
2022-08-17T07:51:36.478Z,27.79
2022-08-17T07:52:50.691Z,27.70
2022-08-17T07:54:14.561Z,27.61
2022-08-17T07:55:29.469Z,27.55
2022-08-17T07:56:42.266Z,27.50
2022-08-17T07:57:57.439Z,27.46
2022-08-17T07:59:12.543Z,27.41
2022-08-17T08:00:19.770Z,27.38
2022-08-17T08:01:41.788Z,27.34
2022-08-17T08:02:47.307Z,27.32
2022-08-17T08:03:52.765Z,27.36
2022-08-17T08:05:06.788Z,27.71
2022-08-17T08:06:24.351Z,28.38
2022-08-17T08:07:32.042Z,29.02
2022-08-17T08:08:51.169Z,29.48
2022-08-17T08:10:07.809Z,29.63
2022-08-17T08:11:15.411Z,29.45
2022-08-17T08:12:34.919Z,29.24
2022-08-17T08:13:43.574Z,29.01
2022-08-17T08:14:58.716Z,28.85
2022-08-17T08:16:27.578Z,28.71
2022-08-17T08:17:36.394Z,28.57
2022-08-17T08:18:54.109Z,28.47
2022-08-17T08:20:00.492Z,28.37
2022-08-17T08:21:33.640Z,28.27
2022-08-17T08:22:46.366Z,28.18
2022-08-17T08:23:57.492Z,28.11
2022-08-17T08:25:21.400Z,28.04
2022-08-17T08:26:37.578Z,27.97
2022-08-17T08:27:54.423Z,27.91
2022-08-17T08:29:11.334Z,27.84
2022-08-17T08:30:18.459Z,27.78
2022-08-17T08:31:47.670Z,27.75
2022-08-17T08:33:21.038Z,27.73
2022-08-17T08:35:02.826Z,27.70
2022-08-17T08:36:59.326Z,27.62
2022-08-17T08:38:13.534Z,27.53
2022-08-17T08:39:24.761Z,27.47
2022-08-17T08:40:45.547Z,27.44
2022-08-17T08:42:08.856Z,27.41
2022-08-17T08:43:36.263Z,27.39
2022-08-17T08:45:00.264Z,27.39
2022-08-17T08:46:29.594Z,27.38
2022-08-17T08:47:41.572Z,27.37
2022-08-17T08:49:10.232Z,27.40
2022-08-17T08:50:37.820Z,27.43
2022-08-17T08:51:57.508Z,27.46
2022-08-17T08:53:14.316Z,27.48
2022-08-17T08:54:35.151Z,27.51
2022-08-17T08:55:50.832Z,27.51
2022-08-17T08:57:33.950Z,27.50
2022-08-17T08:58:50.672Z,27.49
2022-08-17T09:00:01.420Z,27.48
2022-08-17T09:01:27.134Z,27.49
2022-08-17T09:03:17.838Z,27.52
2022-08-17T09:05:10.670Z,27.57
2022-08-17T09:06:32.292Z,27.62
2022-08-17T09:08:01.590Z,27.66
2022-08-17T09:09:29.234Z,27.72
2022-08-17T09:10:47.911Z,27.77
2022-08-17T09:12:07.970Z,27.81
2022-08-17T09:13:28.463Z,27.85
2022-08-17T09:15:09.438Z,27.90
2022-08-17T09:16:23.139Z,27.96
2022-08-17T09:17:43.624Z,28.00
2022-08-17T09:19:00.040Z,28.06
2022-08-17T09:20:27.995Z,28.11
2022-08-17T09:21:54.780Z,28.17
2022-08-17T09:23:15.358Z,28.23
2022-08-17T09:24:35.742Z,28.28
2022-08-17T09:25:54.850Z,28.34
2022-08-17T09:27:04.414Z,28.39
2022-08-17T09:28:19.301Z,28.45
2022-08-17T09:29:25.910Z,28.53
2022-08-17T09:30:43.582Z,28.59
2022-08-17T09:31:55.606Z,28.66
2022-08-17T09:33:02.278Z,28.74
2022-08-17T09:34:33.210Z,28.81
2022-08-17T09:35:48.257Z,28.87
2022-08-17T09:36:57.298Z,28.87
2022-08-17T09:38:11.244Z,28.85
2022-08-17T09:39:36.330Z,28.82
2022-08-17T09:40:47.661Z,28.77
2022-08-17T09:42:05.219Z,28.75
2022-08-17T09:43:37.637Z,28.74
2022-08-17T09:45:10.291Z,28.73
2022-08-17T09:46:20.318Z,28.71
2022-08-17T09:47:50.264Z,28.74
2022-08-17T09:49:03.588Z,28.78
2022-08-17T09:51:04.246Z,28.83
2022-08-17T09:51:57.092Z,28.88
2022-08-17T09:52:59.654Z,28.92
2022-08-17T09:54:37.124Z,28.96
2022-08-17T09:55:52.581Z,29.00
2022-08-17T09:57:31.448Z,28.96
2022-08-17T09:58:50.440Z,28.90
2022-08-17T10:00:17.265Z,28.85
2022-08-17T10:01:35.425Z,28.83
2022-08-17T10:03:09.612Z,28.85
2022-08-17T10:04:41.044Z,28.92
2022-08-17T10:05:56.875Z,29.01
2022-08-17T10:07:13.179Z,29.06
2022-08-17T10:08:46.999Z,29.12
2022-08-17T10:10:01.545Z,29.21
2022-08-17T10:11:33.406Z,29.28
2022-08-17T10:12:50.129Z,29.31
2022-08-17T10:14:36.822Z,29.29
2022-08-17T10:15:56.444Z,29.22
2022-08-17T10:17:24.127Z,29.14
2022-08-17T10:18:39.912Z,29.06
2022-08-17T10:20:03.173Z,29.03
2022-08-17T10:21:31.649Z,29.02
2022-08-17T10:23:12.262Z,29.01
2022-08-17T10:25:20.975Z,28.99
2022-08-17T10:26:24.854Z,28.92
2022-08-17T10:27:41.574Z,28.86
2022-08-17T10:29:01.615Z,28.80
2022-08-17T10:30:08.234Z,28.78
2022-08-17T10:31:45.545Z,28.78
2022-08-17T10:33:15.627Z,28.82
2022-08-17T10:34:23.275Z,28.89
2022-08-17T10:35:53.775Z,28.95
2022-08-17T10:37:25.284Z,29.05
2022-08-17T10:38:50.510Z,29.13
2022-08-17T10:39:57.402Z,29.19
2022-08-17T10:41:27.050Z,29.22
2022-08-17T10:42:44.418Z,29.22
2022-08-17T10:43:55.857Z,29.20
2022-08-17T10:45:21.660Z,29.17
2022-08-17T10:46:52.142Z,29.13
2022-08-17T10:48:06.245Z,29.10
2022-08-17T10:49:17.293Z,29.10
2022-08-17T10:50:49.737Z,29.13
2022-08-17T10:51:58.359Z,29.20
2022-08-17T10:53:00.069Z,29.26
2022-08-17T10:54:03.389Z,29.33
2022-08-17T10:55:13.926Z,29.40
2022-08-17T10:56:17.423Z,29.47
2022-08-17T10:57:34.347Z,29.55
2022-08-17T10:58:59.162Z,29.65
2022-08-17T11:00:42.425Z,29.77
2022-08-17T11:02:04.182Z,29.95
2022-08-17T11:03:21.214Z,30.11
2022-08-17T11:04:34.452Z,30.23
2022-08-17T11:05:56.200Z,30.32
2022-08-17T11:07:43.854Z,30.39
2022-08-17T11:09:09.810Z,30.46
2022-08-17T11:10:42.240Z,30.48
2022-08-17T11:12:07.431Z,30.52
2022-08-17T11:13:44.899Z,30.56
2022-08-17T11:15:26.116Z,30.60
2022-08-17T11:16:42.847Z,30.67
2022-08-17T11:18:22.739Z,30.74
2022-08-17T11:19:38.386Z,30.84
2022-08-17T11:21:13.548Z,30.91
2022-08-17T11:23:02.596Z,30.99
2022-08-17T11:24:14.965Z,31.09
2022-08-17T11:25:21.106Z,31.18
2022-08-17T11:26:27.258Z,31.26
2022-08-17T11:27:36.606Z,31.35
2022-08-17T11:28:52.582Z,31.44
2022-08-17T11:30:20.591Z,31.54
2022-08-17T11:31:40.193Z,31.64
2022-08-17T11:32:48.804Z,31.71
2022-08-17T11:34:13.279Z,31.76
2022-08-17T11:35:20.915Z,31.85
2022-08-17T11:36:33.664Z,31.91
2022-08-17T11:38:02.819Z,31.99
2022-08-17T11:39:13.289Z,32.06
2022-08-17T11:40:28.104Z,32.10
2022-08-17T11:41:41.365Z,32.18
2022-08-17T11:43:03.369Z,32.26
2022-08-17T11:44:43.237Z,32.39
2022-08-17T11:45:53.616Z,32.55
2022-08-17T11:47:38.826Z,32.62
2022-08-17T11:49:04.926Z,32.69
2022-08-17T11:50:43.066Z,32.67
2022-08-17T11:52:12.115Z,32.69
2022-08-17T11:53:37.128Z,32.75
2022-08-17T11:54:48.914Z,32.84
2022-08-17T11:55:53.080Z,32.90
2022-08-17T11:56:55.056Z,32.95
2022-08-17T11:58:01.653Z,32.98
2022-08-17T11:59:32.688Z,32.98
2022-08-17T12:00:46.525Z,32.98
2022-08-17T12:01:57.007Z,32.99
2022-08-17T12:03:22.464Z,32.95
2022-08-17T12:04:29.522Z,32.94
2022-08-17T12:05:34.098Z,32.96
2022-08-17T12:06:59.758Z,33.00
2022-08-17T12:08:19.728Z,33.08
2022-08-17T12:09:26.353Z,33.18
2022-08-17T12:10:32.788Z,33.23
2022-08-17T12:12:12.893Z,33.28
2022-08-17T12:13:19.050Z,33.36
2022-08-17T12:15:05.712Z,33.40
2022-08-17T12:15:56.092Z,33.47
2022-08-17T12:17:41.498Z,33.52
2022-08-17T12:18:58.494Z,33.62
2022-08-17T12:20:15.053Z,33.64
2022-08-17T12:21:41.037Z,33.65
2022-08-17T12:23:11.763Z,33.66
2022-08-17T12:24:23.110Z,33.68
2022-08-17T12:25:52.798Z,33.70
2022-08-17T12:27:00.393Z,33.72
2022-08-17T12:28:06.099Z,33.74
2022-08-17T12:29:18.171Z,33.79
2022-08-17T12:30:38.169Z,33.93
2022-08-17T12:31:47.190Z,34.04
2022-08-17T12:32:50.059Z,34.14
2022-08-17T12:33:52.265Z,34.20
2022-08-17T12:34:54.036Z,34.24
2022-08-17T12:36:05.916Z,34.26
2022-08-17T12:37:19.891Z,34.27
2022-08-17T12:38:32.461Z,34.25
2022-08-17T12:39:35.240Z,34.24
2022-08-17T12:40:37.903Z,34.26
2022-08-17T12:41:47.056Z,34.29
2022-08-17T12:43:19.549Z,34.33
2022-08-17T12:44:31.472Z,34.36
2022-08-17T12:45:36.406Z,34.37
2022-08-17T12:47:10.639Z,34.38
2022-08-17T12:48:21.550Z,34.42
2022-08-17T12:49:36.893Z,34.46
2022-08-17T12:50:42.428Z,34.52
2022-08-17T12:51:46.765Z,34.54
2022-08-17T12:52:48.655Z,34.60
2022-08-17T12:53:55.095Z,34.67
2022-08-17T12:55:03.023Z,34.73
2022-08-17T12:56:12.585Z,34.82
2022-08-17T12:57:32.711Z,34.93
2022-08-17T12:58:47.480Z,35.03
2022-08-17T12:59:54.976Z,35.09
2022-08-17T13:01:14.985Z,35.14
2022-08-17T13:02:30.001Z,35.23
2022-08-17T13:03:44.067Z,35.34
2022-08-17T13:04:46.221Z,35.39
2022-08-17T13:05:58.597Z,35.43
2022-08-17T13:07:00.447Z,35.47
2022-08-17T13:08:13.458Z,35.51
2022-08-17T13:09:35.561Z,35.55
2022-08-17T13:10:42.378Z,35.54
2022-08-17T13:11:58.379Z,35.54
2022-08-17T13:13:17.738Z,35.56
2022-08-17T13:14:21.977Z,35.57
2022-08-17T13:15:44.928Z,35.59
2022-08-17T13:16:51.333Z,35.61
2022-08-17T13:18:01.078Z,35.62
2022-08-17T13:19:40.371Z,35.60
2022-08-17T13:20:54.183Z,35.58
2022-08-17T13:22:01.874Z,35.52
2022-08-17T13:23:12.392Z,35.50
2022-08-17T13:24:24.121Z,35.48
2022-08-17T13:25:27.781Z,35.47
2022-08-17T13:26:42.142Z,35.48
2022-08-17T13:27:45.978Z,35.52
2022-08-17T13:28:51.678Z,35.56
2022-08-17T13:29:59.573Z,35.59
2022-08-17T13:31:37.469Z,35.62
2022-08-17T13:32:56.519Z,35.69
2022-08-17T13:34:26.880Z,35.76
2022-08-17T13:35:49.305Z,35.90
2022-08-17T13:37:28.888Z,36.01
2022-08-17T13:38:49.531Z,36.13
2022-08-17T13:39:53.162Z,36.20
2022-08-17T13:40:54.852Z,36.19
2022-08-17T13:41:56.564Z,36.11
2022-08-17T13:42:58.927Z,35.97
2022-08-17T13:44:01.241Z,35.80
2022-08-17T13:45:34.784Z,35.59
2022-08-17T13:46:31.292Z,35.34
2022-08-17T13:47:34.328Z,35.13
2022-08-17T13:48:36.559Z,34.95
2022-08-17T13:49:48.147Z,34.75
2022-08-17T13:50:56.801Z,34.55
2022-08-17T13:51:58.850Z,34.36
2022-08-17T13:53:14.914Z,34.18
2022-08-17T13:54:27.769Z,33.97
2022-08-17T13:55:32.094Z,33.77
2022-08-17T13:56:40.445Z,33.61
2022-08-17T13:57:46.813Z,33.43
2022-08-17T13:59:00.602Z,33.27
2022-08-17T14:00:18.798Z,33.14
2022-08-17T14:01:32.818Z,32.98
2022-08-17T14:02:34.566Z,32.80
2022-08-17T14:03:36.266Z,32.65
2022-08-17T14:04:42.322Z,32.50
2022-08-17T14:05:45.962Z,32.33
2022-08-17T14:07:21.528Z,32.17
2022-08-17T14:08:23.980Z,31.93
2022-08-17T14:09:36.805Z,31.78
2022-08-17T14:10:39.019Z,31.62
2022-08-17T14:11:41.992Z,31.50
2022-08-17T14:12:45.526Z,31.39
2022-08-17T14:13:47.265Z,31.28
2022-08-17T14:14:49.744Z,31.17
2022-08-17T14:15:55.201Z,31.06
2022-08-17T14:16:58.393Z,30.94
2022-08-17T14:18:00.518Z,30.87
2022-08-17T14:19:02.253Z,30.80
2022-08-17T14:20:06.482Z,30.78
2022-08-17T14:21:09.717Z,30.83
2022-08-17T14:22:19.527Z,30.92
2022-08-17T14:23:21.353Z,31.07
2022-08-17T14:24:44.695Z,31.22
2022-08-17T14:25:47.000Z,31.45
2022-08-17T14:26:52.133Z,31.62
2022-08-17T14:27:55.058Z,31.80
2022-08-17T14:28:57.224Z,31.98
2022-08-17T14:30:01.733Z,32.14
2022-08-17T14:31:03.564Z,32.31
2022-08-17T14:32:23.009Z,32.48
2022-08-17T14:33:24.821Z,32.70
2022-08-17T14:34:26.492Z,32.87
2022-08-17T14:35:29.543Z,33.00
2022-08-17T14:36:31.255Z,33.11
2022-08-17T14:37:34.416Z,33.19
2022-08-17T14:38:37.234Z,33.25
2022-08-17T14:39:39.404Z,33.30
2022-08-17T14:40:41.687Z,33.34
2022-08-17T14:41:43.806Z,33.37
2022-08-17T14:42:46.086Z,33.39
2022-08-17T14:43:47.800Z,33.38
2022-08-17T14:44:51.002Z,33.37
2022-08-17T14:45:52.731Z,33.32
2022-08-17T14:46:54.452Z,33.26
2022-08-17T14:47:56.121Z,33.22
2022-08-17T14:48:59.690Z,33.16
2022-08-17T14:50:02.657Z,33.08
2022-08-17T14:51:05.464Z,33.00
2022-08-17T14:52:07.192Z,32.91
2022-08-17T14:53:12.298Z,32.83
2022-08-17T14:54:33.013Z,32.75
2022-08-17T14:55:39.732Z,32.63
2022-08-17T14:56:41.397Z,32.55
2022-08-17T14:57:47.108Z,32.46
2022-08-17T14:58:49.130Z,32.37
2022-08-17T14:59:54.725Z,32.29
2022-08-17T15:00:57.691Z,32.22
2022-08-17T15:02:00.782Z,32.19
2022-08-17T15:03:04.096Z,32.16
2022-08-17T15:04:06.207Z,32.15
2022-08-17T15:05:08.460Z,32.13
2022-08-17T15:06:14.544Z,32.10
2022-08-17T15:07:18.597Z,32.08
2022-08-17T15:08:20.302Z,32.05
2022-08-17T15:09:22.064Z,32.02
2022-08-17T15:10:25.925Z,31.97
2022-08-17T15:11:27.742Z,31.90
2022-08-17T15:12:34.343Z,31.86
2022-08-17T15:13:37.259Z,31.82
2022-08-17T15:14:54.248Z,31.81
2022-08-17T15:15:56.943Z,31.86
2022-08-17T15:16:59.654Z,31.95
2022-08-17T15:18:02.604Z,32.07
2022-08-17T15:19:06.646Z,32.17
2022-08-17T15:20:14.565Z,32.25
2022-08-17T15:21:18.157Z,32.38
2022-08-17T15:22:27.368Z,32.54
2022-08-17T15:23:31.952Z,32.73
2022-08-17T15:24:33.728Z,32.92